sensor_id;sensor_type;location;lat;lon;timestamp;pressure;altitude;pressure_sealevel;temperature;humidity
17649;BME280;8943;51.110;-4.158;2023-05-06T00:02:15;100786.16;;;17.09;57.62
17649;BME280;8943;51.110;-4.158;2023-05-06T00:04:44;100785.16;;;17.10;57.65
17649;BME280;8943;51.110;-4.158;2023-05-06T00:07:12;100792.06;;;17.13;57.69
17649;BME280;8943;51.110;-4.158;2023-05-06T00:09:40;100787.38;;;17.15;57.78
17649;BME280;8943;51.110;-4.158;2023-05-06T00:12:08;100787.22;;;17.16;57.63
17649;BME280;8943;51.110;-4.158;2023-05-06T00:14:36;100788.78;;;17.19;57.80
17649;BME280;8943;51.110;-4.158;2023-05-06T00:17:04;100786.91;;;17.19;57.74
17649;BME280;8943;51.110;-4.158;2023-05-06T00:19:33;100784.78;;;17.23;57.90
17649;BME280;8943;51.110;-4.158;2023-05-06T00:22:01;100791.00;;;17.23;58.15
17649;BME280;8943;51.110;-4.158;2023-05-06T00:24:29;100782.28;;;17.30;57.78
17649;BME280;8943;51.110;-4.158;2023-05-06T00:26:57;100781.28;;;17.31;57.85
17649;BME280;8943;51.110;-4.158;2023-05-06T00:29:25;100782.84;;;17.33;57.81
17649;BME280;8943;51.110;-4.158;2023-05-06T00:31:53;100771.06;;;17.34;57.86
17649;BME280;8943;51.110;-4.158;2023-05-06T00:34:21;100768.91;;;17.38;57.55
17649;BME280;8943;51.110;-4.158;2023-05-06T00:36:51;100761.66;;;17.38;57.79
17649;BME280;8943;51.110;-4.158;2023-05-06T00:39:19;100772.97;;;17.42;57.68
17649;BME280;8943;51.110;-4.158;2023-05-06T00:41:47;100760.38;;;17.42;57.66
17649;BME280;8943;51.110;-4.158;2023-05-06T00:44:15;100761.22;;;17.43;57.49
17649;BME280;8943;51.110;-4.158;2023-05-06T00:46:43;100750.06;;;17.38;57.44
17649;BME280;8943;51.110;-4.158;2023-05-06T00:49:11;100744.44;;;17.31;57.44
17649;BME280;8943;51.110;-4.158;2023-05-06T00:51:39;100747.44;;;17.28;57.52
17649;BME280;8943;51.110;-4.158;2023-05-06T00:54:09;100748.75;;;17.24;57.38
17649;BME280;8943;51.110;-4.158;2023-05-06T00:56:37;100746.81;;;17.16;57.64
17649;BME280;8943;51.110;-4.158;2023-05-06T00:59:05;100743.22;;;17.08;57.24
17649;BME280;8943;51.110;-4.158;2023-05-06T01:01:33;100746.91;;;17.07;57.30
17649;BME280;8943;51.110;-4.158;2023-05-06T01:04:03;100749.09;;;17.03;57.58
17649;BME280;8943;51.110;-4.158;2023-05-06T01:06:39;100744.84;;;17.01;57.36
17649;BME280;8943;51.110;-4.158;2023-05-06T01:09:18;100741.75;;;16.95;57.29
17649;BME280;8943;51.110;-4.158;2023-05-06T01:11:50;100745.31;;;16.96;57.60
17649;BME280;8943;51.110;-4.158;2023-05-06T01:14:26;100740.38;;;16.91;57.67
17649;BME280;8943;51.110;-4.158;2023-05-06T01:16:58;100723.22;;;16.92;57.70
17649;BME280;8943;51.110;-4.158;2023-05-06T01:19:36;100733.00;;;16.93;57.84
17649;BME280;8943;51.110;-4.158;2023-05-06T01:22:05;100725.91;;;16.92;57.82
17649;BME280;8943;51.110;-4.158;2023-05-06T01:24:37;100724.78;;;16.95;57.70
17649;BME280;8943;51.110;-4.158;2023-05-06T01:27:05;100719.38;;;16.95;57.64
17649;BME280;8943;51.110;-4.158;2023-05-06T01:29:36;100718.69;;;16.93;58.27
17649;BME280;8943;51.110;-4.158;2023-05-06T01:32:16;100723.09;;;16.94;57.54
17649;BME280;8943;51.110;-4.158;2023-05-06T01:34:53;100720.53;;;16.92;57.57
17649;BME280;8943;51.110;-4.158;2023-05-06T01:37:29;100722.38;;;16.92;57.70
17649;BME280;8943;51.110;-4.158;2023-05-06T01:40:02;100708.25;;;16.90;57.77
17649;BME280;8943;51.110;-4.158;2023-05-06T01:42:33;100710.47;;;16.94;57.47
17649;BME280;8943;51.110;-4.158;2023-05-06T01:45:03;100705.22;;;16.93;57.61
17649;BME280;8943;51.110;-4.158;2023-05-06T01:47:32;100695.47;;;16.92;57.71
17649;BME280;8943;51.110;-4.158;2023-05-06T01:50:02;100698.69;;;16.95;57.78
17649;BME280;8943;51.110;-4.158;2023-05-06T01:52:31;100703.25;;;16.95;57.77
17649;BME280;8943;51.110;-4.158;2023-05-06T01:55:00;100700.56;;;16.95;57.34
17649;BME280;8943;51.110;-4.158;2023-05-06T01:57:29;100705.22;;;16.93;57.65
17649;BME280;8943;51.110;-4.158;2023-05-06T01:59:57;100706.22;;;16.92;57.43
17649;BME280;8943;51.110;-4.158;2023-05-06T02:02:25;100703.16;;;16.87;57.60
17649;BME280;8943;51.110;-4.158;2023-05-06T02:04:53;100698.56;;;16.79;57.32
17649;BME280;8943;51.110;-4.158;2023-05-06T02:07:21;100693.31;;;16.78;57.65
17649;BME280;8943;51.110;-4.158;2023-05-06T02:09:49;100697.00;;;16.77;57.57
17649;BME280;8943;51.110;-4.158;2023-05-06T02:12:19;100691.47;;;16.78;57.83
17649;BME280;8943;51.110;-4.158;2023-05-06T02:14:47;100692.16;;;16.80;57.79
17649;BME280;8943;51.110;-4.158;2023-05-06T02:17:15;100692.84;;;16.82;57.77
17649;BME280;8943;51.110;-4.158;2023-05-06T02:19:43;100690.41;;;16.89;57.77
17649;BME280;8943;51.110;-4.158;2023-05-06T02:22:11;100695.78;;;16.89;57.95
17649;BME280;8943;51.110;-4.158;2023-05-06T02:24:39;100691.75;;;16.93;57.91
17649;BME280;8943;51.110;-4.158;2023-05-06T02:27:07;100693.31;;;16.95;57.76
17649;BME280;8943;51.110;-4.158;2023-05-06T02:29:36;100688.63;;;16.97;58.01
17649;BME280;8943;51.110;-4.158;2023-05-06T02:32:04;100687.84;;;17.05;58.08
17649;BME280;8943;51.110;-4.158;2023-05-06T02:34:32;100688.22;;;17.10;57.90
17649;BME280;8943;51.110;-4.158;2023-05-06T02:37:00;100687.94;;;17.13;57.90
17649;BME280;8943;51.110;-4.158;2023-05-06T02:39:28;100690.44;;;17.15;57.89
17649;BME280;8943;51.110;-4.158;2023-05-06T02:41:57;100681.56;;;17.22;57.96
17649;BME280;8943;51.110;-4.158;2023-05-06T02:44:24;100688.34;;;17.27;57.92
17649;BME280;8943;51.110;-4.158;2023-05-06T02:46:54;100678.28;;;17.29;58.01
17649;BME280;8943;51.110;-4.158;2023-05-06T02:49:22;100675.59;;;17.29;58.00
17649;BME280;8943;51.110;-4.158;2023-05-06T02:51:50;100667.88;;;17.34;58.22
17649;BME280;8943;51.110;-4.158;2023-05-06T02:54:18;100671.09;;;17.37;57.83
17649;BME280;8943;51.110;-4.158;2023-05-06T02:56:46;100665.84;;;17.36;57.82
17649;BME280;8943;51.110;-4.158;2023-05-06T02:59:15;100673.63;;;17.39;57.74
17649;BME280;8943;51.110;-4.158;2023-05-06T03:01:43;100668.06;;;17.40;58.07
17649;BME280;8943;51.110;-4.158;2023-05-06T03:04:13;100667.59;;;17.45;57.91
17649;BME280;8943;51.110;-4.158;2023-05-06T03:06:41;100665.09;;;17.43;58.21
17649;BME280;8943;51.110;-4.158;2023-05-06T03:09:09;100665.75;;;17.45;58.00
17649;BME280;8943;51.110;-4.158;2023-05-06T03:11:36;100669.16;;;17.47;58.06
17649;BME280;8943;51.110;-4.158;2023-05-06T03:14:04;100667.81;;;17.51;57.88
17649;BME280;8943;51.110;-4.158;2023-05-06T03:16:33;100665.97;;;17.52;58.28
17649;BME280;8943;51.110;-4.158;2023-05-06T03:19:01;100663.97;;;17.54;58.12
17649;BME280;8943;51.110;-4.158;2023-05-06T03:21:30;100661.94;;;17.56;57.69
17649;BME280;8943;51.110;-4.158;2023-05-06T03:23:59;100657.25;;;17.58;58.03
17649;BME280;8943;51.110;-4.158;2023-05-06T03:26:27;100660.47;;;17.62;57.92
17649;BME280;8943;51.110;-4.158;2023-05-06T03:28:55;100653.06;;;17.64;58.34
17649;BME280;8943;51.110;-4.158;2023-05-06T03:31:23;100655.28;;;17.68;57.96
17649;BME280;8943;51.110;-4.158;2023-05-06T03:33:51;100635.59;;;17.68;58.04
17649;BME280;8943;51.110;-4.158;2023-05-06T03:36:19;100642.66;;;17.69;58.05
17649;BME280;8943;51.110;-4.158;2023-05-06T03:38:50;100642.47;;;17.70;57.74
17649;BME280;8943;51.110;-4.158;2023-05-06T03:41:19;100637.09;;;17.70;58.03
17649;BME280;8943;51.110;-4.158;2023-05-06T03:43:47;100635.63;;;17.76;58.02
17649;BME280;8943;51.110;-4.158;2023-05-06T03:46:15;100635.97;;;17.73;58.09
17649;BME280;8943;51.110;-4.158;2023-05-06T03:48:43;100636.50;;;17.77;57.83
17649;BME280;8943;51.110;-4.158;2023-05-06T03:51:11;100625.88;;;17.75;57.89
17649;BME280;8943;51.110;-4.158;2023-05-06T03:53:39;100625.19;;;17.73;58.01
17649;BME280;8943;51.110;-4.158;2023-05-06T03:56:08;100625.03;;;17.74;58.15
17649;BME280;8943;51.110;-4.158;2023-05-06T03:58:36;100626.72;;;17.75;58.05
17649;BME280;8943;51.110;-4.158;2023-05-06T04:01:04;100620.66;;;17.73;58.05
17649;BME280;8943;51.110;-4.158;2023-05-06T04:03:32;100622.34;;;17.74;58.01
17649;BME280;8943;51.110;-4.158;2023-05-06T04:06:00;100612.56;;;17.73;58.02
17649;BME280;8943;51.110;-4.158;2023-05-06T04:08:28;100611.72;;;17.73;58.01
17649;BME280;8943;51.110;-4.158;2023-05-06T04:10:56;100604.47;;;17.73;58.01
17649;BME280;8943;51.110;-4.158;2023-05-06T04:13:26;100611.72;;;17.73;58.01
17649;BME280;8943;51.110;-4.158;2023-05-06T04:15:54;100603.63;;;17.73;58.01
17649;BME280;8943;51.110;-4.158;2023-05-06T04:18:22;100603.63;;;17.73;57.98
17649;BME280;8943;51.110;-4.158;2023-05-06T04:20:50;100607.00;;;17.75;58.16
17649;BME280;8943;51.110;-4.158;2023-05-06T04:23:18;100598.53;;;17.70;58.29
17649;BME280;8943;51.110;-4.158;2023-05-06T04:25:47;100599.38;;;17.70;58.01
17649;BME280;8943;51.110;-4.158;2023-05-06T04:28:15;100601.94;;;17.72;57.88
17649;BME280;8943;51.110;-4.158;2023-05-06T04:30:45;100589.28;;;17.72;57.95
17649;BME280;8943;51.110;-4.158;2023-05-06T04:33:13;100590.44;;;17.70;58.23
17649;BME280;8943;51.110;-4.158;2023-05-06T04:35:49;100587.75;;;17.70;57.93
17649;BME280;8943;51.110;-4.158;2023-05-06T04:38:17;100593.69;;;17.73;57.86
17649;BME280;8943;51.110;-4.158;2023-05-06T04:40:45;100590.00;;;17.74;57.88
17649;BME280;8943;51.110;-4.158;2023-05-06T04:43:13;100590.84;;;17.75;58.17
17649;BME280;8943;51.110;-4.158;2023-05-06T04:45:42;100585.44;;;17.75;58.21
17649;BME280;8943;51.110;-4.158;2023-05-06T04:48:18;100582.09;;;17.73;58.17
17649;BME280;8943;51.110;-4.158;2023-05-06T04:50:47;100586.81;;;17.79;58.05
17649;BME280;8943;51.110;-4.158;2023-05-06T04:53:16;100575.19;;;17.79;58.29
17649;BME280;8943;51.110;-4.158;2023-05-06T04:55:44;100585.97;;;17.79;58.39
17649;BME280;8943;51.110;-4.158;2023-05-06T04:58:11;100570.66;;;17.79;58.22
17649;BME280;8943;51.110;-4.158;2023-05-06T05:00:40;100577.72;;;17.80;58.22
17649;BME280;8943;51.110;-4.158;2023-05-06T05:03:07;100580.59;;;17.79;58.31
17649;BME280;8943;51.110;-4.158;2023-05-06T05:05:37;100576.56;;;17.83;57.98
17649;BME280;8943;51.110;-4.158;2023-05-06T05:08:05;100576.88;;;17.80;58.22
17649;BME280;8943;51.110;-4.158;2023-05-06T05:10:33;100584.47;;;17.84;58.36
17649;BME280;8943;51.110;-4.158;2023-05-06T05:13:01;100579.91;;;17.85;58.34
17649;BME280;8943;51.110;-4.158;2023-05-06T05:15:29;100577.41;;;17.83;58.10
17649;BME280;8943;51.110;-4.158;2023-05-06T05:17:57;100576.22;;;17.86;58.33
17649;BME280;8943;51.110;-4.158;2023-05-06T05:20:25;100581.59;;;17.86;58.21
17649;BME280;8943;51.110;-4.158;2023-05-06T05:22:55;100570.81;;;17.86;58.35
17649;BME280;8943;51.110;-4.158;2023-05-06T05:25:23;100565.44;;;17.86;58.47
17649;BME280;8943;51.110;-4.158;2023-05-06T05:27:51;100570.81;;;17.86;58.74
17649;BME280;8943;51.110;-4.158;2023-05-06T05:30:19;100555.00;;;17.83;58.41
17649;BME280;8943;51.110;-4.158;2023-05-06T05:32:47;100560.91;;;17.86;58.65
17649;BME280;8943;51.110;-4.158;2023-05-06T05:35:16;100560.03;;;17.86;58.43
17649;BME280;8943;51.110;-4.158;2023-05-06T05:37:44;100555.66;;;17.85;58.51
17649;BME280;8943;51.110;-4.158;2023-05-06T05:40:14;100549.91;;;17.80;58.54
17649;BME280;8943;51.110;-4.158;2023-05-06T05:42:42;100553.16;;;17.83;58.70
17649;BME280;8943;51.110;-4.158;2023-05-06T05:45:10;100551.94;;;17.86;58.46
17649;BME280;8943;51.110;-4.158;2023-05-06T05:47:38;100549.13;;;17.87;58.53
17649;BME280;8943;51.110;-4.158;2023-05-06T05:50:07;100542.88;;;17.87;58.66
17649;BME280;8943;51.110;-4.158;2023-05-06T05:52:35;100542.88;;;17.87;58.49
17649;BME280;8943;51.110;-4.158;2023-05-06T05:55:05;100542.41;;;17.91;58.72
17649;BME280;8943;51.110;-4.158;2023-05-06T05:57:35;100541.19;;;17.94;58.69
17649;BME280;8943;51.110;-4.158;2023-05-06T06:00:03;100541.91;;;17.96;58.46
17649;BME280;8943;51.110;-4.158;2023-05-06T06:02:32;100541.19;;;17.94;58.52
17649;BME280;8943;51.110;-4.158;2023-05-06T06:05:01;100549.59;;;17.91;58.85
17649;BME280;8943;51.110;-4.158;2023-05-06T06:07:29;100542.88;;;17.95;58.52
17649;BME280;8943;51.110;-4.158;2023-05-06T06:09:57;100540.19;;;17.95;58.64
17649;BME280;8943;51.110;-4.158;2023-05-06T06:12:25;100533.81;;;17.96;58.25
17649;BME280;8943;51.110;-4.158;2023-05-06T06:14:55;100532.09;;;17.95;58.54
17649;BME280;8943;51.110;-4.158;2023-05-06T06:17:23;100529.41;;;17.95;58.44
17649;BME280;8943;51.110;-4.158;2023-05-06T06:19:51;100525.88;;;17.94;58.66
17649;BME280;8943;51.110;-4.158;2023-05-06T06:22:22;100531.25;;;17.94;58.78
17649;BME280;8943;51.110;-4.158;2023-05-06T06:24:50;100528.25;;;17.97;59.09
17649;BME280;8943;51.110;-4.158;2023-05-06T06:27:19;100531.59;;;17.99;58.73
17649;BME280;8943;51.110;-4.158;2023-05-06T06:29:47;100535.97;;;18.00;58.70
17649;BME280;8943;51.110;-4.158;2023-05-06T06:32:17;100525.06;;;18.02;58.78
17649;BME280;8943;51.110;-4.158;2023-05-06T06:34:45;100528.41;;;18.04;58.85
17649;BME280;8943;51.110;-4.158;2023-05-06T06:37:13;100531.63;;;18.08;59.10
17649;BME280;8943;51.110;-4.158;2023-05-06T06:39:41;100523.06;;;18.12;58.74
17649;BME280;8943;51.110;-4.158;2023-05-06T06:42:09;100527.94;;;18.17;59.17
17649;BME280;8943;51.110;-4.158;2023-05-06T06:44:37;100530.13;;;18.21;58.85
17649;BME280;8943;51.110;-4.158;2023-05-06T06:47:05;100531.16;;;18.20;58.80
17649;BME280;8943;51.110;-4.158;2023-05-06T06:49:34;100530.47;;;18.26;58.94
17649;BME280;8943;51.110;-4.158;2023-05-06T06:52:02;100523.41;;;18.25;59.09
17649;BME280;8943;51.110;-4.158;2023-05-06T06:54:31;100521.06;;;18.31;59.15
17649;BME280;8943;51.110;-4.158;2023-05-06T06:56:59;100515.31;;;18.42;59.35
17649;BME280;8943;51.110;-4.158;2023-05-06T06:59:27;100515.66;;;18.55;59.03
17649;BME280;8943;51.110;-4.158;2023-05-06T07:01:55;100507.19;;;18.66;58.95
17649;BME280;8943;51.110;-4.158;2023-05-06T07:04:23;100506.88;;;18.77;59.11
17649;BME280;8943;51.110;-4.158;2023-05-06T07:06:53;100509.56;;;18.86;59.14
17649;BME280;8943;51.110;-4.158;2023-05-06T07:09:22;100510.22;;;18.96;59.06
17649;BME280;8943;51.110;-4.158;2023-05-06T07:11:50;100511.03;;;19.04;59.15
17649;BME280;8943;51.110;-4.158;2023-05-06T07:14:19;100503.22;;;19.18;59.14
17649;BME280;8943;51.110;-4.158;2023-05-06T07:16:47;100510.28;;;19.27;59.06
17649;BME280;8943;51.110;-4.158;2023-05-06T07:19:17;100509.25;;;19.36;58.97
17649;BME280;8943;51.110;-4.158;2023-05-06T07:21:45;100499.44;;;19.43;58.99
17649;BME280;8943;51.110;-4.158;2023-05-06T07:24:14;100500.28;;;19.44;58.84
17649;BME280;8943;51.110;-4.158;2023-05-06T07:26:42;100501.91;;;19.53;58.47
17649;BME280;8943;51.110;-4.158;2023-05-06T07:29:11;100509.16;;;19.61;58.67
17649;BME280;8943;51.110;-4.158;2023-05-06T07:31:39;100515.19;;;19.71;58.31
17649;BME280;8943;51.110;-4.158;2023-05-06T07:34:07;100504.38;;;19.71;58.52
17649;BME280;8943;51.110;-4.158;2023-05-06T07:36:35;100495.19;;;19.80;58.46
17649;BME280;8943;51.110;-4.158;2023-05-06T07:39:06;100505.66;;;19.83;58.48
17649;BME280;8943;51.110;-4.158;2023-05-06T07:41:35;100503.09;;;19.90;58.52
17649;BME280;8943;51.110;-4.158;2023-05-06T07:44:04;100501.38;;;19.97;58.39
17649;BME280;8943;51.110;-4.158;2023-05-06T07:46:32;100501.66;;;20.02;58.15
17649;BME280;8943;51.110;-4.158;2023-05-06T07:49:00;100503.34;;;20.03;58.14
17649;BME280;8943;51.110;-4.158;2023-05-06T07:51:28;100501.28;;;20.05;58.13
17649;BME280;8943;51.110;-4.158;2023-05-06T07:53:57;100498.44;;;20.06;57.96
17649;BME280;8943;51.110;-4.158;2023-05-06T07:56:25;100504.59;;;20.15;58.18
17649;BME280;8943;51.110;-4.158;2023-05-06T07:58:54;100504.44;;;20.17;58.04
17649;BME280;8943;51.110;-4.158;2023-05-06T08:01:25;100498.66;;;20.20;58.01
17649;BME280;8943;51.110;-4.158;2023-05-06T08:03:54;100500.47;;;20.27;58.15
17649;BME280;8943;51.110;-4.158;2023-05-06T08:06:22;100511.78;;;20.31;57.95
17649;BME280;8943;51.110;-4.158;2023-05-06T08:08:50;100516.25;;;20.39;57.96
17649;BME280;8943;51.110;-4.158;2023-05-06T08:11:18;100508.44;;;20.44;58.02
17649;BME280;8943;51.110;-4.158;2023-05-06T08:13:46;100507.84;;;20.56;58.03
17649;BME280;8943;51.110;-4.158;2023-05-06T08:16:16;100500.97;;;20.69;57.78
17649;BME280;8943;51.110;-4.158;2023-05-06T08:18:44;100509.50;;;20.80;57.98
17649;BME280;8943;51.110;-4.158;2023-05-06T08:21:12;100501.59;;;20.94;58.05
17649;BME280;8943;51.110;-4.158;2023-05-06T08:23:40;100511.66;;;21.00;57.52
17649;BME280;8943;51.110;-4.158;2023-05-06T08:26:08;100509.25;;;21.05;57.20
17649;BME280;8943;51.110;-4.158;2023-05-06T08:28:36;100505.13;;;21.09;57.42
17649;BME280;8943;51.110;-4.158;2023-05-06T08:31:04;100504.00;;;21.18;57.36
17649;BME280;8943;51.110;-4.158;2023-05-06T08:33:34;100507.00;;;21.23;57.23
17649;BME280;8943;51.110;-4.158;2023-05-06T08:36:02;100508.41;;;21.19;57.18
17649;BME280;8943;51.110;-4.158;2023-05-06T08:38:31;100499.88;;;21.22;57.33
17649;BME280;8943;51.110;-4.158;2023-05-06T08:41:01;100506.34;;;21.36;57.38
17649;BME280;8943;51.110;-4.158;2023-05-06T08:43:39;100507.38;;;21.50;57.39
17649;BME280;8943;51.110;-4.158;2023-05-06T08:46:08;100504.44;;;21.66;57.16
17649;BME280;8943;51.110;-4.158;2023-05-06T08:48:38;100510.41;;;21.76;57.23
17649;BME280;8943;51.110;-4.158;2023-05-06T08:51:08;100499.06;;;21.88;56.76
17649;BME280;8943;51.110;-4.158;2023-05-06T08:53:36;100507.47;;;21.93;57.02
17649;BME280;8943;51.110;-4.158;2023-05-06T08:56:07;100505.66;;;22.00;56.72
17649;BME280;8943;51.110;-4.158;2023-05-06T08:58:36;100504.50;;;22.09;56.54
17649;BME280;8943;51.110;-4.158;2023-05-06T09:01:05;100509.00;;;22.17;56.52
17649;BME280;8943;51.110;-4.158;2023-05-06T09:03:33;100512.44;;;22.25;56.49
17649;BME280;8943;51.110;-4.158;2023-05-06T09:06:03;100506.84;;;22.33;56.35
17649;BME280;8943;51.110;-4.158;2023-05-06T09:08:31;100503.19;;;22.41;55.94
17649;BME280;8943;51.110;-4.158;2023-05-06T09:11:00;100509.31;;;22.50;56.08
17649;BME280;8943;51.110;-4.158;2023-05-06T09:13:28;100495.56;;;22.58;55.99
17649;BME280;8943;51.110;-4.158;2023-05-06T09:15:56;100495.66;;;22.65;55.94
17649;BME280;8943;51.110;-4.158;2023-05-06T09:18:24;100494.78;;;22.64;55.91
17649;BME280;8943;51.110;-4.158;2023-05-06T09:20:52;100495.81;;;22.63;55.75
17649;BME280;8943;51.110;-4.158;2023-05-06T09:23:22;100488.72;;;22.62;55.34
17649;BME280;8943;51.110;-4.158;2023-05-06T09:25:50;100490.63;;;22.68;55.37
17649;BME280;8943;51.110;-4.158;2023-05-06T09:28:18;100492.59;;;22.74;55.32
17649;BME280;8943;51.110;-4.158;2023-05-06T09:30:47;100487.78;;;22.76;55.55
17649;BME280;8943;51.110;-4.158;2023-05-06T09:33:18;100491.66;;;22.88;55.58
17649;BME280;8943;51.110;-4.158;2023-05-06T09:35:56;100496.31;;;22.95;55.25
17649;BME280;8943;51.110;-4.158;2023-05-06T09:38:25;100491.91;;;22.94;55.04
17649;BME280;8943;51.110;-4.158;2023-05-06T09:40:54;100500.56;;;23.04;54.80
17649;BME280;8943;51.110;-4.158;2023-05-06T09:43:23;100490.47;;;22.98;54.80
17649;BME280;8943;51.110;-4.158;2023-05-06T09:45:51;100491.75;;;23.02;54.96
17649;BME280;8943;51.110;-4.158;2023-05-06T09:48:19;100500.13;;;23.07;54.78
17649;BME280;8943;51.110;-4.158;2023-05-06T09:50:48;100497.78;;;22.97;54.42
17649;BME280;8943;51.110;-4.158;2023-05-06T09:53:17;100499.41;;;22.92;54.14
17649;BME280;8943;51.110;-4.158;2023-05-06T09:55:48;100499.53;;;22.83;54.51
17649;BME280;8943;51.110;-4.158;2023-05-06T09:58:16;100498.28;;;22.79;54.46
17649;BME280;8943;51.110;-4.158;2023-05-06T10:00:46;100496.38;;;22.80;54.63
17649;BME280;8943;51.110;-4.158;2023-05-06T10:03:15;100495.94;;;22.76;54.47
17649;BME280;8943;51.110;-4.158;2023-05-06T10:05:44;100499.09;;;22.80;54.55
17649;BME280;8943;51.110;-4.158;2023-05-06T10:08:14;100496.91;;;22.90;54.87
17649;BME280;8943;51.110;-4.158;2023-05-06T10:10:45;100493.00;;;22.99;54.60
17649;BME280;8943;51.110;-4.158;2023-05-06T10:13:15;100501.38;;;23.04;54.73
17649;BME280;8943;51.110;-4.158;2023-05-06T10:15:45;100501.25;;;23.19;54.69
17649;BME280;8943;51.110;-4.158;2023-05-06T10:18:16;100499.38;;;23.20;54.15
17649;BME280;8943;51.110;-4.158;2023-05-06T10:20:44;100492.06;;;23.20;54.36
17649;BME280;8943;51.110;-4.158;2023-05-06T10:23:31;100496.47;;;23.21;53.96
17649;BME280;8943;51.110;-4.158;2023-05-06T10:26:05;100495.59;;;23.14;54.14
17649;BME280;8943;51.110;-4.158;2023-05-06T10:28:39;100500.59;;;23.17;54.10
17649;BME280;8943;51.110;-4.158;2023-05-06T10:31:10;100494.91;;;23.05;53.54
17649;BME280;8943;51.110;-4.158;2023-05-06T10:33:39;100495.50;;;23.01;53.23
17649;BME280;8943;51.110;-4.158;2023-05-06T10:36:14;100496.16;;;22.75;52.81
17649;BME280;8943;51.110;-4.158;2023-05-06T10:38:48;100501.31;;;22.42;52.50
17649;BME280;8943;51.110;-4.158;2023-05-06T10:41:20;100503.88;;;22.07;52.83
17649;BME280;8943;51.110;-4.158;2023-05-06T10:43:50;100511.31;;;21.83;53.61
17649;BME280;8943;51.110;-4.158;2023-05-06T10:46:23;100509.84;;;21.66;53.74
17649;BME280;8943;51.110;-4.158;2023-05-06T10:49:21;100516.53;;;21.49;54.34
17649;BME280;8943;51.110;-4.158;2023-05-06T10:52:08;100510.28;;;21.48;54.44
17649;BME280;8943;51.110;-4.158;2023-05-06T10:54:46;100513.75;;;21.57;54.47
17649;BME280;8943;51.110;-4.158;2023-05-06T10:57:16;100520.97;;;21.71;54.62
17649;BME280;8943;51.110;-4.158;2023-05-06T10:59:47;100520.09;;;21.85;54.37
17649;BME280;8943;51.110;-4.158;2023-05-06T11:02:17;100521.22;;;21.91;53.65
17649;BME280;8943;51.110;-4.158;2023-05-06T11:04:50;100510.44;;;21.98;53.94
17649;BME280;8943;51.110;-4.158;2023-05-06T11:07:23;100513.66;;;22.23;53.20
17649;BME280;8943;51.110;-4.158;2023-05-06T11:09:55;100516.09;;;22.39;53.00
17649;BME280;8943;51.110;-4.158;2023-05-06T11:12:42;100522.56;;;22.59;52.83
17649;BME280;8943;51.110;-4.158;2023-05-06T11:15:25;100515.41;;;22.80;52.35
17649;BME280;8943;51.110;-4.158;2023-05-06T11:17:54;100531.47;;;23.03;52.37
17649;BME280;8943;51.110;-4.158;2023-05-06T11:20:24;100532.25;;;23.25;50.97
17649;BME280;8943;51.110;-4.158;2023-05-06T11:22:53;100534.81;;;23.33;49.07
17649;BME280;8943;51.110;-4.158;2023-05-06T11:25:40;100544.53;;;23.14;47.24
17649;BME280;8943;51.110;-4.158;2023-05-06T11:28:10;100540.84;;;22.94;47.41
17649;BME280;8943;51.110;-4.158;2023-05-06T11:30:42;100545.88;;;23.03;48.40
17649;BME280;8943;51.110;-4.158;2023-05-06T11:33:16;100540.91;;;23.07;47.92
17649;BME280;8943;51.110;-4.158;2023-05-06T11:35:45;100544.22;;;23.02;47.56
17649;BME280;8943;51.110;-4.158;2023-05-06T11:38:13;100545.75;;;23.11;48.08
17649;BME280;8943;51.110;-4.158;2023-05-06T11:40:41;100533.41;;;23.09;46.97
17649;BME280;8943;51.110;-4.158;2023-05-06T11:43:10;100547.25;;;23.14;47.47
17649;BME280;8943;51.110;-4.158;2023-05-06T11:45:45;100552.25;;;23.17;47.36
17649;BME280;8943;51.110;-4.158;2023-05-06T11:48:13;100553.75;;;23.20;47.53
17649;BME280;8943;51.110;-4.158;2023-05-06T11:50:45;100554.25;;;23.36;48.31
17649;BME280;8943;51.110;-4.158;2023-05-06T11:53:16;100550.81;;;23.56;47.98
17649;BME280;8943;51.110;-4.158;2023-05-06T11:55:46;100552.09;;;23.60;47.96
17649;BME280;8943;51.110;-4.158;2023-05-06T11:58:16;100556.38;;;23.76;47.91
17649;BME280;8943;51.110;-4.158;2023-05-06T12:00:47;100557.47;;;23.88;47.43
17649;BME280;8943;51.110;-4.158;2023-05-06T12:03:17;100563.38;;;24.05;47.90
17649;BME280;8943;51.110;-4.158;2023-05-06T12:05:47;100563.22;;;24.20;47.75
17649;BME280;8943;51.110;-4.158;2023-05-06T12:08:16;100567.25;;;24.37;47.32
17649;BME280;8943;51.110;-4.158;2023-05-06T12:10:54;100559.31;;;24.42;46.57
17649;BME280;8943;51.110;-4.158;2023-05-06T12:13:25;100561.63;;;24.52;46.87
17649;BME280;8943;51.110;-4.158;2023-05-06T12:15:57;100559.75;;;24.46;45.40
17649;BME280;8943;51.110;-4.158;2023-05-06T12:18:26;100571.41;;;24.26;45.59
17649;BME280;8943;51.110;-4.158;2023-05-06T12:20:55;100575.59;;;24.22;46.27
17649;BME280;8943;51.110;-4.158;2023-05-06T12:23:23;100576.63;;;24.28;46.41
17649;BME280;8943;51.110;-4.158;2023-05-06T12:25:59;100578.09;;;24.24;45.63
17649;BME280;8943;51.110;-4.158;2023-05-06T12:28:29;100569.69;;;24.19;45.79
17649;BME280;8943;51.110;-4.158;2023-05-06T12:30:59;100571.81;;;24.17;45.46
17649;BME280;8943;51.110;-4.158;2023-05-06T12:33:28;100578.91;;;24.11;45.25
17649;BME280;8943;51.110;-4.158;2023-05-06T12:36:10;100576.75;;;24.00;45.37
17649;BME280;8943;51.110;-4.158;2023-05-06T12:38:48;100588.06;;;23.97;44.90
17649;BME280;8943;51.110;-4.158;2023-05-06T12:41:17;100587.19;;;23.83;44.53
17649;BME280;8943;51.110;-4.158;2023-05-06T12:43:45;100591.50;;;23.71;45.37
17649;BME280;8943;51.110;-4.158;2023-05-06T12:46:15;100601.34;;;23.72;45.10
17649;BME280;8943;51.110;-4.158;2023-05-06T12:48:57;100601.09;;;23.67;44.86
17649;BME280;8943;51.110;-4.158;2023-05-06T12:51:26;100607.78;;;23.64;45.01
17649;BME280;8943;51.110;-4.158;2023-05-06T12:53:54;100612.88;;;23.74;44.91
17649;BME280;8943;51.110;-4.158;2023-05-06T12:56:22;100609.56;;;23.85;45.06
17649;BME280;8943;51.110;-4.158;2023-05-06T12:58:58;100615.22;;;23.83;44.86
17649;BME280;8943;51.110;-4.158;2023-05-06T13:01:28;100611.44;;;23.84;45.36
17649;BME280;8943;51.110;-4.158;2023-05-06T13:03:57;100612.06;;;23.80;46.96